Time;durP1;ratioP1;P1;durP2;ratioP2;P2;SDS_P1;SDS_P2;PMS_P1;PMS_P2;Temp;Humidity;BMP_temperature;BMP_pressure;BME280_temperature;BME280_humidity;BME280_pressure;Samples;Min_cycle;Max_cycle;Signal;HPM_P1;HPM_P2
2024/02/17 00:02:03;;;;;;;138.80;88.17;;;;;;;;;;4963430;28;20063;-48
2024/02/17 00:04:30;;;;;;;133.23;87.53;;;;;;;;;;4970724;28;20349;-52
2024/02/17 00:06:56;;;;;;;127.57;80.63;;;;;;;;;;4960215;28;20081;-50
2024/02/17 00:09:22;;;;;;;145.35;88.45;;;;;;;;;;4953295;28;20090;-49
2024/02/17 00:11:49;;;;;;;135.40;87.18;;;;;;;;;;4967192;28;20031;-48
2024/02/17 00:14:15;;;;;;;128.63;83.97;;;;;;;;;;4953170;28;20039;-49
2024/02/17 00:16:42;;;;;;;134.70;79.45;;;;;;;;;;4965770;28;20065;-49
2024/02/17 00:19:08;;;;;;;118.57;80.50;;;;;;;;;;4970653;28;20042;-50
2024/02/17 00:21:34;;;;;;;120.55;79.68;;;;;;;;;;4966541;28;20027;-49
2024/02/17 00:24:00;;;;;;;127.78;85.25;;;;;;;;;;4972008;28;20436;-49
2024/02/17 00:26:26;;;;;;;117.97;76.85;;;;;;;;;;4971893;28;20101;-49
2024/02/17 00:28:53;;;;;;;127.05;83.20;;;;;;;;;;4971987;28;20027;-49
2024/02/17 00:31:19;;;;;;;123.63;81.93;;;;;;;;;;4963550;28;20535;-50
2024/02/17 00:33:45;;;;;;;135.25;90.15;;;;;;;;;;4969078;28;20027;-48
2024/02/17 00:36:12;;;;;;;127.47;83.25;;;;;;;;;;4954040;28;20027;-49
2024/02/17 00:38:38;;;;;;;133.90;84.47;;;;;;;;;;4954113;28;20027;-48
2024/02/17 00:41:06;;;;;;;139.30;86.15;;;;;;;;;;4954028;28;20031;-51
2024/02/17 00:43:35;;;;;;;132.63;86.47;;;;;;;;;;4956179;28;20453;-49
2024/02/17 00:46:02;;;;;;;132.13;81.88;;;;;;;;;;4965362;28;20035;-48
2024/02/17 00:48:28;;;;;;;122.50;83.83;;;;;;;;;;4953858;28;20523;-49
2024/02/17 00:50:54;;;;;;;118.68;78.55;;;;;;;;;;4953611;28;20036;-49
2024/02/17 00:53:21;;;;;;;110.80;77.40;;;;;;;;;;4955651;28;20098;-49
2024/02/17 00:55:47;;;;;;;120.32;79.35;;;;;;;;;;4969083;28;20805;-49
2024/02/17 00:58:13;;;;;;;116.55;79.57;;;;;;;;;;4961875;28;20034;-49
2024/02/17 01:00:40;;;;;;;122.18;80.00;;;;;;;;;;4970199;28;20218;-49
2024/02/17 01:03:06;;;;;;;131.60;82.80;;;;;;;;;;4968294;28;20031;-48
2024/02/17 01:05:32;;;;;;;119.50;81.68;;;;;;;;;;4965175;28;20045;-49
2024/02/17 01:07:58;;;;;;;123.68;80.22;;;;;;;;;;4964895;28;20058;-49
2024/02/17 01:10:25;;;;;;;128.63;80.18;;;;;;;;;;4953699;28;20504;-49
2024/02/17 01:12:51;;;;;;;120.97;79.67;;;;;;;;;;4949053;28;20027;-50
2024/02/17 01:15:17;;;;;;;123.15;81.90;;;;;;;;;;4985506;28;20122;-50
2024/02/17 01:17:44;;;;;;;137.93;86.73;;;;;;;;;;4953613;28;20031;-48
2024/02/17 01:20:10;;;;;;;130.05;84.50;;;;;;;;;;4984364;28;20035;-48
2024/02/17 01:22:36;;;;;;;138.50;88.57;;;;;;;;;;4955862;28;20373;-48
2024/02/17 01:25:03;;;;;;;125.43;81.82;;;;;;;;;;4968012;28;20054;-48
2024/02/17 01:27:29;;;;;;;137.32;86.88;;;;;;;;;;4958565;28;20110;-49
2024/02/17 01:29:55;;;;;;;137.93;85.28;;;;;;;;;;4961482;28;20105;-49
2024/02/17 01:32:22;;;;;;;137.00;86.67;;;;;;;;;;4976872;28;20034;-48
2024/02/17 01:34:48;;;;;;;130.98;86.68;;;;;;;;;;4976610;28;20789;-48
2024/02/17 01:37:14;;;;;;;136.70;89.07;;;;;;;;;;4974905;28;20043;-49
2024/02/17 01:39:40;;;;;;;140.35;91.95;;;;;;;;;;4974236;28;20027;-48
2024/02/17 01:42:07;;;;;;;146.80;97.53;;;;;;;;;;4955594;28;20074;-48
2024/02/17 01:44:33;;;;;;;137.63;86.85;;;;;;;;;;4957090;28;20027;-48
2024/02/17 01:46:59;;;;;;;133.25;89.05;;;;;;;;;;4972204;28;20023;-47
2024/02/17 01:49:26;;;;;;;117.40;77.70;;;;;;;;;;4961495;28;20019;-51
2024/02/17 01:51:52;;;;;;;123.30;78.63;;;;;;;;;;4974890;28;20042;-49
2024/02/17 01:54:18;;;;;;;117.60;81.30;;;;;;;;;;4973015;28;20031;-48
2024/02/17 01:56:45;;;;;;;131.70;82.20;;;;;;;;;;4975897;28;20081;-49
2024/02/17 01:59:12;;;;;;;128.10;80.20;;;;;;;;;;4965000;28;20381;-49
2024/02/17 02:01:38;;;;;;;114.25;76.80;;;;;;;;;;4970603;28;20436;-50
2024/02/17 02:04:05;;;;;;;114.27;74.67;;;;;;;;;;4973138;28;20480;-50
2024/02/17 02:06:31;;;;;;;117.55;79.68;;;;;;;;;;4964969;28;20469;-49
2024/02/17 02:08:57;;;;;;;117.13;77.22;;;;;;;;;;4956773;28;20034;-49
2024/02/17 02:11:24;;;;;;;137.30;77.25;;;;;;;;;;4960279;28;20110;-49
2024/02/17 02:13:50;;;;;;;118.87;76.50;;;;;;;;;;4973611;28;20031;-48
2024/02/17 02:16:17;;;;;;;118.37;75.57;;;;;;;;;;4966122;28;20451;-48
2024/02/17 02:18:46;;;;;;;121.22;79.03;;;;;;;;;;4961227;28;20277;-49
2024/02/17 02:21:12;;;;;;;119.85;73.50;;;;;;;;;;4973657;28;20492;-48
2024/02/17 02:23:38;;;;;;;139.73;85.90;;;;;;;;;;4960828;28;20037;-49
2024/02/17 02:26:05;;;;;;;124.68;82.88;;;;;;;;;;4974277;28;20045;-49
2024/02/17 02:28:31;;;;;;;115.10;74.43;;;;;;;;;;4975544;28;20030;-48
2024/02/17 02:30:57;;;;;;;112.43;72.87;;;;;;;;;;4971095;28;20265;-49
2024/02/17 02:33:24;;;;;;;112.07;73.88;;;;;;;;;;4962931;28;20085;-48
2024/02/17 02:35:50;;;;;;;120.90;77.80;;;;;;;;;;4971925;28;20475;-49
2024/02/17 02:38:16;;;;;;;154.48;89.75;;;;;;;;;;4966584;28;20126;-47
2024/02/17 02:40:43;;;;;;;244.73;101.40;;;;;;;;;;4957380;28;20039;-48
2024/02/17 02:43:09;;;;;;;203.07;97.30;;;;;;;;;;4956109;28;20043;-49
2024/02/17 02:45:37;;;;;;;210.75;95.35;;;;;;;;;;4965522;28;20110;-49
2024/02/17 02:48:03;;;;;;;180.18;94.90;;;;;;;;;;4957208;28;20035;-49
2024/02/17 02:50:29;;;;;;;188.03;95.23;;;;;;;;;;4987011;28;20027;-49
2024/02/17 02:52:56;;;;;;;128.10;89.13;;;;;;;;;;4954758;29;20078;-49
2024/02/17 02:55:22;;;;;;;129.75;86.55;;;;;;;;;;4969348;28;20057;-48
2024/02/17 02:57:48;;;;;;;141.00;92.10;;;;;;;;;;4975203;28;20492;-49
2024/02/17 03:00:15;;;;;;;150.13;95.43;;;;;;;;;;4973659;28;20039;-50
2024/02/17 03:02:41;;;;;;;131.03;90.70;;;;;;;;;;4955846;28;20135;-52
2024/02/17 03:05:07;;;;;;;121.25;82.28;;;;;;;;;;4956591;28;20031;-48
2024/02/17 03:07:33;;;;;;;119.65;82.82;;;;;;;;;;4969256;28;20038;-51
2024/02/17 03:10:00;;;;;;;113.40;77.93;;;;;;;;;;4959394;28;20038;-49
2024/02/17 03:12:26;;;;;;;122.50;84.45;;;;;;;;;;4962814;28;20041;-48
2024/02/17 03:14:53;;;;;;;124.43;85.50;;;;;;;;;;4973312;28;20455;-48
2024/02/17 03:17:19;;;;;;;136.05;89.78;;;;;;;;;;4960495;28;20103;-48
2024/02/17 03:19:46;;;;;;;154.53;103.03;;;;;;;;;;4955520;28;20035;-49
2024/02/17 03:22:12;;;;;;;;;;;;;;;;;;4955884;28;20120;-48
2024/02/17 03:24:38;;;;;;;175.02;105.85;;;;;;;;;;4956421;28;19950;-49
2024/02/17 03:27:05;;;;;;;179.40;111.03;;;;;;;;;;4956370;28;20106;-48
2024/02/17 03:29:31;;;;;;;177.70;108.47;;;;;;;;;;4974735;28;20031;-48
2024/02/17 03:31:57;;;;;;;172.88;106.78;;;;;;;;;;4959464;28;20026;-50
2024/02/17 03:34:24;;;;;;;170.80;111.72;;;;;;;;;;4986223;28;20459;-48
2024/02/17 03:36:50;;;;;;;166.40;105.05;;;;;;;;;;4969139;28;20031;-49
2024/02/17 03:39:19;;;;;;;157.90;105.05;;;;;;;;;;4957699;28;20448;-49
2024/02/17 03:41:46;;;;;;;162.02;106.45;;;;;;;;;;4957865;28;20031;-48
2024/02/17 03:44:12;;;;;;;160.75;105.18;;;;;;;;;;4973267;28;20038;-48
2024/02/17 03:46:38;;;;;;;156.63;100.00;;;;;;;;;;4961070;28;20078;-48
2024/02/17 03:49:05;;;;;;;139.13;95.82;;;;;;;;;;4938169;28;20155;-49
2024/02/17 03:51:31;;;;;;;145.57;95.17;;;;;;;;;;4972592;28;20558;-49
2024/02/17 03:53:57;;;;;;;145.43;96.70;;;;;;;;;;4961078;28;20109;-48
2024/02/17 03:56:23;;;;;;;139.48;93.22;;;;;;;;;;4960355;28;20149;-51
2024/02/17 03:58:50;;;;;;;152.00;98.60;;;;;;;;;;4953663;29;20106;-49
2024/02/17 04:01:16;;;;;;;135.80;93.25;;;;;;;;;;4956840;28;20027;-49
2024/02/17 04:03:42;;;;;;;146.73;94.43;;;;;;;;;;4954492;28;20511;-47
2024/02/17 04:06:09;;;;;;;142.43;95.30;;;;;;;;;;4954482;28;20032;-48
2024/02/17 04:08:35;;;;;;;138.10;90.63;;;;;;;;;;4957841;28;20102;-49
2024/02/17 04:11:01;;;;;;;135.13;93.05;;;;;;;;;;4966561;28;20023;-51
2024/02/17 04:13:28;;;;;;;125.03;84.70;;;;;;;;;;4954566;28;20035;-49
2024/02/17 04:15:54;;;;;;;115.80;78.53;;;;;;;;;;4946706;28;20035;-47
2024/02/17 04:18:20;;;;;;;109.03;78.73;;;;;;;;;;4956342;28;20035;-48
2024/02/17 04:20:47;;;;;;;117.03;77.83;;;;;;;;;;4958778;28;20395;-49
2024/02/17 04:23:14;;;;;;;125.60;84.22;;;;;;;;;;4973611;28;20049;-48
2024/02/17 04:25:43;;;;;;;123.05;83.57;;;;;;;;;;4965545;28;20051;-49
2024/02/17 04:28:09;;;;;;;131.13;84.57;;;;;;;;;;4954350;28;20559;-49
2024/02/17 04:30:35;;;;;;;137.10;88.43;;;;;;;;;;4957949;28;20034;-49
2024/02/17 04:33:02;;;;;;;117.68;81.82;;;;;;;;;;4966289;28;20069;-49
2024/02/17 04:35:28;;;;;;;121.57;80.45;;;;;;;;;;4955797;28;20027;-49
2024/02/17 04:37:54;;;;;;;141.37;88.67;;;;;;;;;;4971842;28;20035;-48
2024/02/17 04:40:21;;;;;;;138.67;87.90;;;;;;;;;;4973448;28;20392;-50
2024/02/17 04:42:47;;;;;;;132.13;87.50;;;;;;;;;;4971121;28;20031;-48
2024/02/17 04:45:13;;;;;;;151.80;95.63;;;;;;;;;;4955278;28;20492;-48
2024/02/17 04:47:40;;;;;;;135.88;88.63;;;;;;;;;;4970114;28;20034;-49
2024/02/17 04:50:06;;;;;;;257.07;92.13;;;;;;;;;;4972962;28;20089;-47
2024/02/17 04:52:32;;;;;;;200.90;87.20;;;;;;;;;;4973263;28;20262;-45
2024/02/17 04:54:58;;;;;;;273.42;92.35;;;;;;;;;;4954332;28;20047;-50
2024/02/17 04:57:25;;;;;;;166.82;86.22;;;;;;;;;;4952897;28;20035;-50
2024/02/17 04:59:51;;;;;;;133.57;87.93;;;;;;;;;;4987810;28;20031;-47
2024/02/17 05:02:17;;;;;;;142.10;89.47;;;;;;;;;;4972882;28;20034;-48
2024/02/17 05:04:44;;;;;;;134.97;84.13;;;;;;;;;;4972851;28;20062;-49
2024/02/17 05:07:12;;;;;;;140.18;85.88;;;;;;;;;;4971189;28;20030;-48
2024/02/17 05:09:38;;;;;;;132.43;82.43;;;;;;;;;;4971318;28;20405;-48
2024/02/17 05:12:04;;;;;;;176.75;93.43;;;;;;;;;;4971167;28;20039;-48
2024/02/17 05:14:30;;;;;;;200.93;99.03;;;;;;;;;;4971251;28;20404;-48
2024/02/17 05:16:56;;;;;;;361.75;115.03;;;;;;;;;;4971013;28;20034;-47
2024/02/17 05:19:23;;;;;;;328.52;107.95;;;;;;;;;;4971145;28;20050;-49
2024/02/17 05:21:49;;;;;;;514.60;111.20;;;;;;;;;;4972261;28;20035;-49
2024/02/17 05:24:16;;;;;;;319.15;103.82;;;;;;;;;;4971492;28;20041;-49
2024/02/17 05:26:42;;;;;;;510.35;117.88;;;;;;;;;;4972846;28;20058;-50
2024/02/17 05:29:08;;;;;;;367.27;113.13;;;;;;;;;;4971632;28;20027;-49
2024/02/17 05:31:35;;;;;;;541.08;132.80;;;;;;;;;;4972861;28;20019;-49
2024/02/17 05:34:02;;;;;;;390.58;118.18;;;;;;;;;;4972872;28;20042;-47
2024/02/17 05:36:29;;;;;;;600.17;140.32;;;;;;;;;;4972696;28;20027;-48
2024/02/17 05:38:58;;;;;;;473.48;113.32;;;;;;;;;;4972757;28;20035;-49
2024/02/17 05:41:25;;;;;;;375.08;107.95;;;;;;;;;;4971511;28;20062;-50
2024/02/17 05:43:52;;;;;;;452.00;116.68;;;;;;;;;;4972562;28;20042;-47
2024/02/17 05:46:18;;;;;;;;;;;;;;;;;;4973044;28;20027;-48
2024/02/17 05:48:45;;;;;;;349.45;105.13;;;;;;;;;;4972696;28;20398;-47
2024/02/17 05:51:11;;;;;;;401.83;115.00;;;;;;;;;;4972717;28;20035;-48
2024/02/17 05:53:37;;;;;;;408.65;120.28;;;;;;;;;;4972653;28;20023;-48
2024/02/17 05:56:04;;;;;;;537.93;124.83;;;;;;;;;;4972310;28;20113;-49
2024/02/17 05:58:30;;;;;;;456.67;120.13;;;;;;;;;;4972646;28;20109;-49
2024/02/17 06:01:00;;;;;;;927.15;209.38;;;;;;;;;;4972616;28;20791;-50
2024/02/17 06:03:27;;;;;;;449.75;116.65;;;;;;;;;;4972445;28;20043;-48
2024/02/17 06:05:53;;;;;;;487.17;135.07;;;;;;;;;;4972260;28;20114;-50
2024/02/17 06:08:21;;;;;;;353.65;114.85;;;;;;;;;;4972651;28;20031;-48
2024/02/17 06:10:47;;;;;;;382.05;116.15;;;;;;;;;;4974941;28;20102;-48
2024/02/17 06:13:13;;;;;;;355.45;111.50;;;;;;;;;;4976209;28;20049;-48
2024/02/17 06:15:42;;;;;;;410.75;122.35;;;;;;;;;;4975895;28;20038;-48
2024/02/17 06:23:39;;;;;;;590.00;151.60;;;;;;;;;;4975852;28;20455;-47
2024/02/17 06:26:05;;;;;;;236.82;103.90;;;;;;;;;;4975868;28;20398;-49
2024/02/17 06:28:32;;;;;;;225.02;103.15;;;;;;;;;;4975846;28;20027;-47
2024/02/17 06:30:58;;;;;;;309.88;110.90;;;;;;;;;;4975862;28;20105;-51
2024/02/17 06:33:26;;;;;;;401.75;117.88;;;;;;;;;;4975819;28;20113;-47
2024/02/17 06:35:52;;;;;;;587.47;157.35;;;;;;;;;;4974310;28;20488;-48
2024/02/17 06:38:19;;;;;;;513.60;148.75;;;;;;;;;;4958321;28;20038;-47
2024/02/17 06:40:45;;;;;;;262.83;105.43;;;;;;;;;;4975688;28;20027;-47
2024/02/17 06:43:11;;;;;;;285.25;103.15;;;;;;;;;;4974227;28;20031;-47
2024/02/17 06:45:37;;;;;;;471.40;130.77;;;;;;;;;;4975404;28;20031;-48
2024/02/17 06:48:04;;;;;;;258.40;103.53;;;;;;;;;;4975481;28;20042;-51
2024/02/17 06:50:30;;;;;;;261.57;102.57;;;;;;;;;;4974184;28;20258;-48
2024/02/17 06:52:57;;;;;;;266.73;94.87;;;;;;;;;;4974206;28;20046;-48
2024/02/17 06:55:23;;;;;;;250.95;96.88;;;;;;;;;;4974320;28;20054;-47
2024/02/17 06:57:50;;;;;;;253.57;98.30;;;;;;;;;;4975450;28;20035;-47
2024/02/17 07:00:18;;;;;;;275.73;96.68;;;;;;;;;;4974182;28;20454;-47
2024/02/17 07:02:44;;;;;;;259.52;97.70;;;;;;;;;;4973840;28;20503;-47
2024/02/17 07:05:13;;;;;;;281.33;104.18;;;;;;;;;;4973608;28;20548;-47
2024/02/17 07:07:40;;;;;;;194.73;91.70;;;;;;;;;;4973812;28;20195;-47
2024/02/17 07:10:06;;;;;;;207.07;92.10;;;;;;;;;;4975120;28;20110;-50
2024/02/17 07:12:34;;;;;;;203.35;92.75;;;;;;;;;;4975147;28;20057;-46
2024/02/17 07:15:00;;;;;;;233.30;95.22;;;;;;;;;;4974900;28;20114;-48
2024/02/17 07:17:27;;;;;;;206.17;91.10;;;;;;;;;;4974862;28;20027;-47
2024/02/17 07:19:53;;;;;;;220.27;84.17;;;;;;;;;;4974141;28;20042;-48
2024/02/17 07:22:19;;;;;;;246.95;94.32;;;;;;;;;;4974764;28;20487;-49
2024/02/17 07:24:45;;;;;;;245.65;92.03;;;;;;;;;;4974094;28;20026;-47
2024/02/17 07:27:12;;;;;;;165.47;84.70;;;;;;;;;;4973487;28;20555;-51
2024/02/17 07:29:39;;;;;;;198.00;91.38;;;;;;;;;;4973391;28;20066;-47
2024/02/17 07:32:05;;;;;;;194.73;85.80;;;;;;;;;;4973477;28;20029;-47
2024/02/17 07:34:32;;;;;;;156.88;88.13;;;;;;;;;;4974587;28;20081;-48
2024/02/17 07:36:58;;;;;;;188.52;86.93;;;;;;;;;;4973342;28;20039;-48
2024/02/17 07:39:25;;;;;;;142.30;85.30;;;;;;;;;;4974606;28;20052;-47
2024/02/17 07:41:54;;;;;;;160.02;88.60;;;;;;;;;;4974576;28;20413;-51
2024/02/17 07:44:23;;;;;;;118.80;81.78;;;;;;;;;;4974192;28;20027;-47
2024/02/17 07:46:50;;;;;;;113.07;76.90;;;;;;;;;;4974216;28;20054;-48
2024/02/17 07:49:17;;;;;;;167.38;81.82;;;;;;;;;;4974404;28;20026;-47
2024/02/17 07:51:46;;;;;;;148.60;83.55;;;;;;;;;;4974269;28;20027;-48
2024/02/17 07:54:13;;;;;;;163.23;82.65;;;;;;;;;;4974220;28;20039;-47
2024/02/17 07:56:40;;;;;;;179.47;81.40;;;;;;;;;;4972883;28;20042;-48
2024/02/17 07:59:07;;;;;;;174.27;85.20;;;;;;;;;;4974225;28;20639;-49
2024/02/17 08:01:33;;;;;;;158.33;84.87;;;;;;;;;;4974247;28;20049;-48
2024/02/17 08:03:59;;;;;;;128.70;82.57;;;;;;;;;;4974006;28;20286;-48
2024/02/17 08:06:25;;;;;;;164.63;92.75;;;;;;;;;;4972599;28;20538;-48
2024/02/17 08:08:51;;;;;;;139.68;83.68;;;;;;;;;;4974062;28;20031;-47
2024/02/17 08:11:18;;;;;;;149.68;86.93;;;;;;;;;;4972709;28;20058;-47
2024/02/17 08:13:44;;;;;;;109.20;80.35;;;;;;;;;;4973830;28;20102;-49
2024/02/17 08:16:11;;;;;;;152.90;85.13;;;;;;;;;;4973709;28;20468;-48
2024/02/17 08:18:41;;;;;;;141.95;78.80;;;;;;;;;;4972676;28;20038;-49
2024/02/17 08:21:08;;;;;;;132.00;80.60;;;;;;;;;;4973783;28;20113;-50
2024/02/17 08:23:34;;;;;;;141.57;85.60;;;;;;;;;;4973693;28;20109;-48
2024/02/17 08:26:00;;;;;;;139.87;89.30;;;;;;;;;;4972223;28;20082;-48
2024/02/17 08:28:27;;;;;;;129.93;83.07;;;;;;;;;;4974075;28;20022;-48
2024/02/17 08:30:53;;;;;;;132.75;86.72;;;;;;;;;;4973416;28;20059;-48
2024/02/17 08:33:20;;;;;;;133.23;83.57;;;;;;;;;;4973617;28;20031;-49
2024/02/17 08:35:46;;;;;;;143.77;89.13;;;;;;;;;;4973499;28;20277;-47
2024/02/17 08:38:12;;;;;;;125.33;87.53;;;;;;;;;;4956335;28;20035;-48
2024/02/17 08:40:39;;;;;;;127.18;85.43;;;;;;;;;;4973527;28;20038;-50
2024/02/17 08:43:05;;;;;;;129.77;87.53;;;;;;;;;;4973660;28;20042;-48
2024/02/17 08:45:32;;;;;;;132.98;90.00;;;;;;;;;;4971992;28;20278;-48
2024/02/17 08:47:58;;;;;;;140.20;91.07;;;;;;;;;;4973373;28;20556;-48
2024/02/17 08:50:24;;;;;;;122.03;88.00;;;;;;;;;;4973312;28;20065;-47
2024/02/17 08:52:50;;;;;;;120.22;87.07;;;;;;;;;;4972099;28;20078;-47
2024/02/17 08:55:17;;;;;;;117.38;83.60;;;;;;;;;;4973077;28;20424;-48
2024/02/17 08:57:43;;;;;;;123.67;87.50;;;;;;;;;;4973090;28;20077;-49
2024/02/17 09:00:10;;;;;;;126.03;85.53;;;;;;;;;;4973368;28;20030;-47
2024/02/17 09:02:36;;;;;;;125.88;88.75;;;;;;;;;;4972052;28;20038;-48
2024/02/17 09:05:05;;;;;;;127.93;85.00;;;;;;;;;;4971861;28;20035;-46
2024/02/17 09:07:31;;;;;;;127.47;87.30;;;;;;;;;;4973504;28;20443;-47
2024/02/17 09:09:57;;;;;;;125.15;88.68;;;;;;;;;;4973008;28;20023;-48
2024/02/17 09:12:23;;;;;;;117.93;85.47;;;;;;;;;;4973107;28;20039;-47
2024/02/17 09:14:50;;;;;;;115.80;80.28;;;;;;;;;;4971724;28;20034;-47
2024/02/17 09:17:16;;;;;;;118.13;81.68;;;;;;;;;;4955496;28;20023;-47
2024/02/17 09:19:43;;;;;;;120.55;85.43;;;;;;;;;;4972899;28;20039;-47
2024/02/17 09:22:09;;;;;;;118.57;84.85;;;;;;;;;;4972701;28;20054;-47
2024/02/17 09:24:35;;;;;;;113.87;80.40;;;;;;;;;;4971464;28;20086;-47
2024/02/17 09:27:02;;;;;;;118.15;83.55;;;;;;;;;;4972807;28;20262;-50
2024/02/17 09:29:28;;;;;;;110.50;83.43;;;;;;;;;;4972814;28;20034;-48
2024/02/17 09:31:54;;;;;;;111.63;79.63;;;;;;;;;;4973062;28;20731;-47
2024/02/17 09:34:21;;;;;;;118.82;83.60;;;;;;;;;;4972749;28;20385;-48
2024/02/17 09:36:47;;;;;;;119.90;85.28;;;;;;;;;;4972526;28;20046;-48
2024/02/17 09:39:16;;;;;;;118.22;83.32;;;;;;;;;;4971455;28;20026;-48
2024/02/17 09:41:43;;;;;;;123.65;87.85;;;;;;;;;;4972666;28;20046;-48
2024/02/17 09:44:12;;;;;;;120.63;86.10;;;;;;;;;;4975589;28;20440;-47
2024/02/17 09:46:38;;;;;;;118.70;88.13;;;;;;;;;;4976429;28;20030;-47
2024/02/17 09:49:06;;;;;;;125.47;88.90;;;;;;;;;;4976936;28;20023;-47
2024/02/17 09:51:33;;;;;;;125.13;88.47;;;;;;;;;;4976501;28;20033;-47
2024/02/17 09:53:59;;;;;;;;;;;;;;;;;;4976635;28;20090;-48
2024/02/17 09:56:26;;;;;;;125.93;88.18;;;;;;;;;;4976306;28;20433;-48
2024/02/17 09:58:52;;;;;;;125.95;91.10;;;;;;;;;;4976424;28;20058;-47
2024/02/17 10:01:19;;;;;;;122.82;89.15;;;;;;;;;;4976345;28;20030;-47
2024/02/17 10:03:51;;;;;;;124.18;89.68;;;;;;;;;;4974860;28;20077;-48
2024/02/17 10:06:18;;;;;;;121.32;87.70;;;;;;;;;;4976060;28;20485;-47
2024/02/17 10:08:45;;;;;;;124.72;91.43;;;;;;;;;;4976244;28;20391;-47
2024/02/17 10:11:12;;;;;;;133.27;92.35;;;;;;;;;;4976180;28;20027;-48
2024/02/17 10:13:39;;;;;;;130.35;91.35;;;;;;;;;;4976116;28;20138;-47
2024/02/17 10:16:10;;;;;;;136.02;95.22;;;;;;;;;;4974677;28;20566;-47
2024/02/17 10:18:43;;;;;;;144.23;97.07;;;;;;;;;;4975861;28;20381;-49
2024/02/17 10:21:10;;;;;;;128.57;87.25;;;;;;;;;;4975889;28;20036;-48
2024/02/17 10:23:36;;;;;;;142.07;95.10;;;;;;;;;;4975863;28;20476;-47
2024/02/17 10:26:03;;;;;;;133.00;94.77;;;;;;;;;;4975757;28;20031;-46
2024/02/17 10:28:30;;;;;;;151.35;98.88;;;;;;;;;;4975923;28;20030;-48
2024/02/17 10:30:57;;;;;;;131.48;93.78;;;;;;;;;;4958360;28;20027;-47
2024/02/17 10:33:24;;;;;;;136.82;96.80;;;;;;;;;;4975877;28;20031;-48
2024/02/17 10:35:50;;;;;;;142.25;98.80;;;;;;;;;;4975412;28;20070;-46
2024/02/17 10:38:17;;;;;;;140.35;103.35;;;;;;;;;;4974355;28;20031;-46
2024/02/17 10:40:43;;;;;;;154.23;106.90;;;;;;;;;;4975607;28;20081;-48
2024/02/17 10:43:09;;;;;;;149.97;105.03;;;;;;;;;;4975502;28;20793;-47
2024/02/17 10:45:36;;;;;;;142.57;100.72;;;;;;;;;;4975154;28;20031;-47
2024/02/17 10:48:07;;;;;;;143.55;99.63;;;;;;;;;;4975407;28;20035;-48
2024/02/17 10:50:41;;;;;;;147.43;104.38;;;;;;;;;;4975383;28;20045;-46
2024/02/17 10:53:07;;;;;;;144.15;107.05;;;;;;;;;;4975580;28;20082;-47
2024/02/17 10:55:38;;;;;;;142.38;103.03;;;;;;;;;;4972390;28;20058;-47
2024/02/17 10:58:10;;;;;;;144.10;102.07;;;;;;;;;;4975265;28;20038;-48
2024/02/17 11:00:39;;;;;;;154.55;105.70;;;;;;;;;;4975141;28;20035;-48
2024/02/17 11:03:05;;;;;;;147.18;103.28;;;;;;;;;;4975096;28;20113;-47
2024/02/17 11:05:33;;;;;;;143.07;105.57;;;;;;;;;;4974872;28;20033;-48
2024/02/17 11:07:59;;;;;;;141.93;106.50;;;;;;;;;;4973875;28;20265;-46
2024/02/17 11:10:29;;;;;;;147.68;109.13;;;;;;;;;;4973883;28;20031;-48
2024/02/17 11:12:56;;;;;;;139.88;101.40;;;;;;;;;;4974857;28;20035;-47
2024/02/17 11:15:23;;;;;;;144.10;104.53;;;;;;;;;;4974681;28;20085;-47
2024/02/17 11:17:54;;;;;;;141.00;100.53;;;;;;;;;;4973716;28;20047;-47
2024/02/17 11:20:21;;;;;;;142.40;101.68;;;;;;;;;;4973780;28;20035;-48
2024/02/17 11:22:50;;;;;;;139.57;102.60;;;;;;;;;;4973602;28;20030;-52
2024/02/17 11:25:31;;;;;;;132.13;96.38;;;;;;;;;;4974512;28;20069;-47
2024/02/17 11:28:01;;;;;;;135.18;98.25;;;;;;;;;;4974685;28;20029;-48
2024/02/17 11:30:27;;;;;;;132.02;99.57;;;;;;;;;;4973664;28;20380;-50
2024/02/17 11:33:04;;;;;;;129.70;94.93;;;;;;;;;;4974554;28;20035;-49
2024/02/17 11:35:31;;;;;;;137.88;102.35;;;;;;;;;;4974489;28;20680;-49
2024/02/17 11:37:57;;;;;;;133.23;93.07;;;;;;;;;;4974904;28;20429;-48
2024/02/17 11:40:27;;;;;;;135.23;99.40;;;;;;;;;;4974489;28;20341;-48
2024/02/17 11:42:57;;;;;;;138.57;96.53;;;;;;;;;;4974356;28;20031;-49
2024/02/17 11:45:25;;;;;;;140.55;102.65;;;;;;;;;;4974127;28;20023;-48
2024/02/17 11:47:51;;;;;;;130.80;98.18;;;;;;;;;;4974372;28;20432;-49
2024/02/17 11:50:18;;;;;;;134.17;96.93;;;;;;;;;;4956979;28;20122;-45
2024/02/17 11:52:44;;;;;;;131.07;95.57;;;;;;;;;;4955011;28;20063;-48
2024/02/17 11:55:11;;;;;;;136.83;99.17;;;;;;;;;;4954346;28;20035;-47
2024/02/17 11:57:40;;;;;;;135.18;95.63;;;;;;;;;;4959063;28;20326;-48
2024/02/17 12:00:11;;;;;;;124.13;90.78;;;;;;;;;;4954912;28;20120;-48
2024/02/17 12:02:41;;;;;;;131.95;93.05;;;;;;;;;;4969819;28;20039;-47
2024/02/17 12:05:08;;;;;;;124.63;91.13;;;;;;;;;;4961891;28;20106;-48
2024/02/17 12:07:34;;;;;;;;;;;;;;;;;;4964336;28;20389;-48
2024/02/17 12:10:00;;;;;;;134.90;100.07;;;;;;;;;;4962616;28;19911;-47
2024/02/17 12:12:27;;;;;;;140.67;100.63;;;;;;;;;;4954021;28;20081;-48
2024/02/17 12:14:53;;;;;;;;;;;;;;;;;;4947501;28;20019;-48
2024/02/17 12:17:21;;;;;;;137.68;96.43;;;;;;;;;;4968282;28;20462;-48
2024/02/17 12:19:47;;;;;;;138.45;97.45;;;;;;;;;;4963642;28;20043;-50
2024/02/17 12:22:13;;;;;;;137.40;101.90;;;;;;;;;;4953702;28;20036;-49
2024/02/17 12:24:41;;;;;;;135.20;99.40;;;;;;;;;;4965624;28;20093;-47
2024/02/17 12:27:08;;;;;;;138.60;105.85;;;;;;;;;;4970695;28;20062;-48
2024/02/17 12:29:34;;;;;;;142.70;103.20;;;;;;;;;;4970100;28;20125;-48
2024/02/17 12:32:00;;;;;;;141.73;101.53;;;;;;;;;;4956039;28;20027;-48
2024/02/17 12:34:32;;;;;;;136.45;99.72;;;;;;;;;;4969621;28;20035;-48
2024/02/17 12:37:03;;;;;;;139.38;100.57;;;;;;;;;;4952652;28;20037;-48
2024/02/17 12:39:30;;;;;;;135.93;99.28;;;;;;;;;;4952648;28;20119;-45
2024/02/17 12:42:00;;;;;;;125.50;96.10;;;;;;;;;;4949222;29;20067;-45
2024/02/17 12:44:27;;;;;;;130.02;96.22;;;;;;;;;;4986085;28;20045;-48
2024/02/17 12:46:55;;;;;;;133.60;100.28;;;;;;;;;;4956531;28;20142;-47
2024/02/17 12:49:24;;;;;;;127.90;99.85;;;;;;;;;;4952493;28;20027;-46
2024/02/17 12:51:51;;;;;;;122.15;94.78;;;;;;;;;;4958474;28;20094;-47
2024/02/17 12:54:21;;;;;;;123.90;92.72;;;;;;;;;;4963964;28;20035;-47
2024/02/17 12:56:47;;;;;;;120.80;89.10;;;;;;;;;;4952034;28;20027;-47
2024/02/17 12:59:14;;;;;;;114.47;89.97;;;;;;;;;;4951267;29;20035;-46
2024/02/17 13:01:40;;;;;;;116.57;91.53;;;;;;;;;;4962138;28;20712;-45
2024/02/17 13:04:09;;;;;;;115.85;88.47;;;;;;;;;;4971140;28;20046;-46
2024/02/17 13:06:37;;;;;;;117.53;92.15;;;;;;;;;;4957566;28;20500;-46
2024/02/17 13:09:06;;;;;;;110.10;87.25;;;;;;;;;;4952122;28;20600;-46
2024/02/17 13:11:32;;;;;;;114.55;89.07;;;;;;;;;;4967250;28;20041;-47
2024/02/17 13:13:59;;;;;;;113.22;83.70;;;;;;;;;;4961442;28;20045;-47
2024/02/17 13:16:25;;;;;;;112.97;87.85;;;;;;;;;;4958851;28;20457;-48
2024/02/17 13:18:56;;;;;;;108.63;86.03;;;;;;;;;;4952377;28;20061;-47
2024/02/17 13:21:23;;;;;;;108.97;84.57;;;;;;;;;;4952055;28;20027;-47
2024/02/17 13:23:50;;;;;;;108.32;85.50;;;;;;;;;;4958621;28;20035;-46
2024/02/17 13:26:16;;;;;;;106.25;82.82;;;;;;;;;;4970660;28;20035;-46
2024/02/17 13:28:42;;;;;;;109.03;84.57;;;;;;;;;;4956535;28;20073;-46
2024/02/17 13:31:09;;;;;;;113.70;83.10;;;;;;;;;;4964883;28;20062;-50
2024/02/17 13:33:35;;;;;;;105.20;82.28;;;;;;;;;;4964858;28;20114;-48
2024/02/17 13:36:01;;;;;;;108.85;86.13;;;;;;;;;;4951693;28;20032;-47
2024/02/17 13:38:27;;;;;;;109.53;85.32;;;;;;;;;;4953272;28;20091;-47
2024/02/17 13:40:53;;;;;;;110.75;86.25;;;;;;;;;;4948938;28;20328;-50
2024/02/17 13:43:20;;;;;;;108.82;86.45;;;;;;;;;;4955413;28;20033;-47
2024/02/17 13:45:48;;;;;;;102.32;83.85;;;;;;;;;;4959318;28;20042;-46
2024/02/17 13:48:14;;;;;;;103.38;82.78;;;;;;;;;;4951868;28;20492;-47
2024/02/17 13:50:40;;;;;;;108.68;83.63;;;;;;;;;;4961237;28;20047;-48
2024/02/17 13:53:07;;;;;;;108.75;83.00;;;;;;;;;;4953958;28;20046;-47
2024/02/17 13:55:34;;;;;;;107.15;84.65;;;;;;;;;;4970706;28;20038;-47
2024/02/17 13:58:00;;;;;;;104.78;83.55;;;;;;;;;;4969593;28;20034;-47
2024/02/17 14:00:28;;;;;;;109.15;84.32;;;;;;;;;;4963171;28;20399;-49
2024/02/17 14:02:54;;;;;;;100.47;79.40;;;;;;;;;;4969503;28;20053;-45
2024/02/17 14:05:20;;;;;;;102.20;80.88;;;;;;;;;;4970812;28;20166;-46
2024/02/17 14:07:47;;;;;;;98.00;80.03;;;;;;;;;;4967678;28;20039;-47